Terminal Aerodrome Forecast
Issued by NWS Honolulu, HI

Home | Current Version | Previous Version | Text Only | Print | Product List | Glossary On
Versions: 1 2 3 4 5 6 7 8 9 10 11 12 13 14 15 16 17 18 19 20 21 22 23
000
FTPA31 PHFO 232104 AAA
TAFHNL
TAF AMD
PHNL 232104Z 2321/2424 17009KT P6SM -SHRA SCT020 SCT035 BKN080
     FM240100 21010G17KT P6SM VCTS SCT020CB BKN040
     FM241400 31010KT P6SM VCSH SCT030 BKN050=

USA.gov is the U.S. government's official web portal to all federal, state and local government web resources and services.